sensor_id;sensor_type;location;lat;lon;timestamp;temperature;humidity
8824;DHT22;4448;50.904;4.694;2023-03-14T00:00:12;12.30;99.90
8824;DHT22;4448;50.904;4.694;2023-03-14T00:02:38;12.30;99.90
8824;DHT22;4448;50.904;4.694;2023-03-14T00:05:05;12.30;99.90
8824;DHT22;4448;50.904;4.694;2023-03-14T00:07:39;12.20;99.90
8824;DHT22;4448;50.904;4.694;2023-03-14T00:10:11;12.30;99.90
8824;DHT22;4448;50.904;4.694;2023-03-14T00:12:37;12.30;99.90
8824;DHT22;4448;50.904;4.694;2023-03-14T00:15:03;12.20;99.90
8824;DHT22;4448;50.904;4.694;2023-03-14T00:17:30;12.20;99.90
8824;DHT22;4448;50.904;4.694;2023-03-14T00:19:56;12.20;99.90
8824;DHT22;4448;50.904;4.694;2023-03-14T00:22:22;12.20;99.90
8824;DHT22;4448;50.904;4.694;2023-03-14T00:24:47;12.20;99.90
8824;DHT22;4448;50.904;4.694;2023-03-14T00:27:13;12.20;99.90
8824;DHT22;4448;50.904;4.694;2023-03-14T00:29:39;12.20;99.90
8824;DHT22;4448;50.904;4.694;2023-03-14T00:32:05;12.20;99.90
8824;DHT22;4448;50.904;4.694;2023-03-14T00:34:31;12.20;99.90
8824;DHT22;4448;50.904;4.694;2023-03-14T00:36:57;12.20;99.90
8824;DHT22;4448;50.904;4.694;2023-03-14T00:39:23;12.20;99.90
8824;DHT22;4448;50.904;4.694;2023-03-14T00:41:48;12.20;99.90
8824;DHT22;4448;50.904;4.694;2023-03-14T00:44:14;12.20;99.90
8824;DHT22;4448;50.904;4.694;2023-03-14T00:46:40;12.20;99.90
8824;DHT22;4448;50.904;4.694;2023-03-14T00:49:05;12.20;99.90
8824;DHT22;4448;50.904;4.694;2023-03-14T00:51:31;12.20;99.90
8824;DHT22;4448;50.904;4.694;2023-03-14T00:53:56;12.10;99.90
8824;DHT22;4448;50.904;4.694;2023-03-14T00:56:22;12.10;99.90
8824;DHT22;4448;50.904;4.694;2023-03-14T00:58:48;12.10;99.90
8824;DHT22;4448;50.904;4.694;2023-03-14T01:01:18;12.10;99.90
8824;DHT22;4448;50.904;4.694;2023-03-14T01:03:44;12.10;99.90
8824;DHT22;4448;50.904;4.694;2023-03-14T01:06:19;12.10;99.90
8824;DHT22;4448;50.904;4.694;2023-03-14T01:08:45;12.10;99.90
8824;DHT22;4448;50.904;4.694;2023-03-14T01:11:21;12.10;99.90
8824;DHT22;4448;50.904;4.694;2023-03-14T01:13:47;12.10;99.90
8824;DHT22;4448;50.904;4.694;2023-03-14T01:16:14;12.10;99.90
8824;DHT22;4448;50.904;4.694;2023-03-14T01:18:41;12.10;99.90
8824;DHT22;4448;50.904;4.694;2023-03-14T01:21:25;12.00;99.90
8824;DHT22;4448;50.904;4.694;2023-03-14T01:23:52;12.00;99.90
8824;DHT22;4448;50.904;4.694;2023-03-14T01:26:21;12.00;99.90
8824;DHT22;4448;50.904;4.694;2023-03-14T01:28:49;12.00;99.90
8824;DHT22;4448;50.904;4.694;2023-03-14T01:31:16;12.00;99.90
8824;DHT22;4448;50.904;4.694;2023-03-14T01:33:42;12.00;99.90
8824;DHT22;4448;50.904;4.694;2023-03-14T01:36:08;12.00;99.90
8824;DHT22;4448;50.904;4.694;2023-03-14T01:38:36;12.00;99.90
8824;DHT22;4448;50.904;4.694;2023-03-14T01:41:03;12.00;99.90
8824;DHT22;4448;50.904;4.694;2023-03-14T01:43:29;12.00;99.90
8824;DHT22;4448;50.904;4.694;2023-03-14T01:48:25;11.90;99.90
8824;DHT22;4448;50.904;4.694;2023-03-14T01:50:53;11.90;99.90
8824;DHT22;4448;50.904;4.694;2023-03-14T01:53:19;11.90;99.90
8824;DHT22;4448;50.904;4.694;2023-03-14T01:55:48;11.90;99.90
8824;DHT22;4448;50.904;4.694;2023-03-14T01:58:15;11.90;99.90
8824;DHT22;4448;50.904;4.694;2023-03-14T02:00:41;11.80;99.90
8824;DHT22;4448;50.904;4.694;2023-03-14T02:03:11;11.80;99.90
8824;DHT22;4448;50.904;4.694;2023-03-14T02:05:39;11.80;99.90
8824;DHT22;4448;50.904;4.694;2023-03-14T02:08:10;11.80;99.90
8824;DHT22;4448;50.904;4.694;2023-03-14T02:10:42;11.70;99.90
8824;DHT22;4448;50.904;4.694;2023-03-14T02:13:10;11.70;99.90
8824;DHT22;4448;50.904;4.694;2023-03-14T02:15:37;11.70;99.90
8824;DHT22;4448;50.904;4.694;2023-03-14T02:18:04;11.70;99.90
8824;DHT22;4448;50.904;4.694;2023-03-14T02:20:51;11.60;99.90
8824;DHT22;4448;50.904;4.694;2023-03-14T02:29:11;11.50;99.90
8824;DHT22;4448;50.904;4.694;2023-03-14T02:31:37;11.50;99.90
8824;DHT22;4448;50.904;4.694;2023-03-14T02:34:03;11.40;99.90
8824;DHT22;4448;50.904;4.694;2023-03-14T02:36:29;11.40;99.90
8824;DHT22;4448;50.904;4.694;2023-03-14T02:39:01;11.30;99.90
8824;DHT22;4448;50.904;4.694;2023-03-14T02:41:29;11.30;99.90
8824;DHT22;4448;50.904;4.694;2023-03-14T02:43:55;11.30;99.90
8824;DHT22;4448;50.904;4.694;2023-03-14T02:46:21;11.30;99.90
8824;DHT22;4448;50.904;4.694;2023-03-14T02:48:55;11.30;99.90
8824;DHT22;4448;50.904;4.694;2023-03-14T02:51:24;11.30;99.90
8824;DHT22;4448;50.904;4.694;2023-03-14T02:53:51;11.30;99.90
8824;DHT22;4448;50.904;4.694;2023-03-14T02:56:16;11.20;99.90
8824;DHT22;4448;50.904;4.694;2023-03-14T02:58:42;11.20;99.90
8824;DHT22;4448;50.904;4.694;2023-03-14T03:01:08;11.20;99.90
8824;DHT22;4448;50.904;4.694;2023-03-14T03:03:34;11.20;99.90
8824;DHT22;4448;50.904;4.694;2023-03-14T03:05:59;11.20;99.90
8824;DHT22;4448;50.904;4.694;2023-03-14T03:08:26;11.20;99.90
8824;DHT22;4448;50.904;4.694;2023-03-14T03:10:53;11.20;99.90
8824;DHT22;4448;50.904;4.694;2023-03-14T03:13:19;11.20;99.90
8824;DHT22;4448;50.904;4.694;2023-03-14T03:15:45;11.20;99.90
8824;DHT22;4448;50.904;4.694;2023-03-14T03:18:11;11.10;99.90
8824;DHT22;4448;50.904;4.694;2023-03-14T03:20:37;11.10;99.90
8824;DHT22;4448;50.904;4.694;2023-03-14T03:23:03;11.10;99.90
8824;DHT22;4448;50.904;4.694;2023-03-14T03:25:29;11.10;99.90
8824;DHT22;4448;50.904;4.694;2023-03-14T03:27:55;11.10;99.90
8824;DHT22;4448;50.904;4.694;2023-03-14T03:30:20;11.10;99.90
8824;DHT22;4448;50.904;4.694;2023-03-14T03:32:46;11.10;99.90
8824;DHT22;4448;50.904;4.694;2023-03-14T03:35:12;11.10;99.90
8824;DHT22;4448;50.904;4.694;2023-03-14T03:37:39;11.10;99.90
8824;DHT22;4448;50.904;4.694;2023-03-14T03:40:05;11.10;99.90
8824;DHT22;4448;50.904;4.694;2023-03-14T03:42:32;11.10;99.90
8824;DHT22;4448;50.904;4.694;2023-03-14T03:44:59;11.10;99.90
8824;DHT22;4448;50.904;4.694;2023-03-14T03:47:24;11.10;99.90
8824;DHT22;4448;50.904;4.694;2023-03-14T03:49:50;11.10;99.90
8824;DHT22;4448;50.904;4.694;2023-03-14T03:52:16;11.10;99.90
8824;DHT22;4448;50.904;4.694;2023-03-14T03:54:41;11.10;99.90
8824;DHT22;4448;50.904;4.694;2023-03-14T03:57:07;11.10;99.90
8824;DHT22;4448;50.904;4.694;2023-03-14T03:59:33;11.00;99.90
8824;DHT22;4448;50.904;4.694;2023-03-14T04:01:58;11.00;99.90
8824;DHT22;4448;50.904;4.694;2023-03-14T04:04:24;11.10;99.90
8824;DHT22;4448;50.904;4.694;2023-03-14T04:06:50;11.00;99.90
8824;DHT22;4448;50.904;4.694;2023-03-14T04:09:15;11.00;99.90
8824;DHT22;4448;50.904;4.694;2023-03-14T04:11:41;11.10;99.90
8824;DHT22;4448;50.904;4.694;2023-03-14T04:14:07;11.00;99.90
8824;DHT22;4448;50.904;4.694;2023-03-14T04:16:32;11.00;99.90
8824;DHT22;4448;50.904;4.694;2023-03-14T04:18:58;11.00;99.90
8824;DHT22;4448;50.904;4.694;2023-03-14T04:21:24;11.00;99.90
8824;DHT22;4448;50.904;4.694;2023-03-14T04:23:50;11.00;99.90
8824;DHT22;4448;50.904;4.694;2023-03-14T04:26:15;11.00;99.90
8824;DHT22;4448;50.904;4.694;2023-03-14T04:28:41;11.00;99.90
8824;DHT22;4448;50.904;4.694;2023-03-14T04:31:16;11.00;99.90
8824;DHT22;4448;50.904;4.694;2023-03-14T04:33:42;10.90;99.90
8824;DHT22;4448;50.904;4.694;2023-03-14T04:36:08;11.00;99.90
8824;DHT22;4448;50.904;4.694;2023-03-14T04:38:34;11.00;99.90
8824;DHT22;4448;50.904;4.694;2023-03-14T04:41:00;11.00;99.90
8824;DHT22;4448;50.904;4.694;2023-03-14T04:43:27;11.00;99.90
8824;DHT22;4448;50.904;4.694;2023-03-14T04:45:57;11.00;99.90
8824;DHT22;4448;50.904;4.694;2023-03-14T04:48:23;11.00;99.90
8824;DHT22;4448;50.904;4.694;2023-03-14T04:50:49;11.00;99.90
8824;DHT22;4448;50.904;4.694;2023-03-14T04:53:16;11.00;99.90
8824;DHT22;4448;50.904;4.694;2023-03-14T04:55:42;11.00;99.90
8824;DHT22;4448;50.904;4.694;2023-03-14T04:58:07;11.00;99.90
8824;DHT22;4448;50.904;4.694;2023-03-14T05:00:33;11.00;99.90
8824;DHT22;4448;50.904;4.694;2023-03-14T05:02:59;11.00;99.90
8824;DHT22;4448;50.904;4.694;2023-03-14T05:05:25;11.00;99.90
8824;DHT22;4448;50.904;4.694;2023-03-14T05:07:51;11.00;99.90
8824;DHT22;4448;50.904;4.694;2023-03-14T05:10:17;11.00;99.90
8824;DHT22;4448;50.904;4.694;2023-03-14T05:12:42;11.10;99.90
8824;DHT22;4448;50.904;4.694;2023-03-14T05:15:09;11.00;99.90
8824;DHT22;4448;50.904;4.694;2023-03-14T05:17:35;11.10;99.90
8824;DHT22;4448;50.904;4.694;2023-03-14T05:20:01;11.00;99.90
8824;DHT22;4448;50.904;4.694;2023-03-14T05:22:32;11.00;99.90
8824;DHT22;4448;50.904;4.694;2023-03-14T05:24:58;11.10;99.90
8824;DHT22;4448;50.904;4.694;2023-03-14T05:27:24;11.00;99.90
8824;DHT22;4448;50.904;4.694;2023-03-14T05:29:50;11.00;99.90
8824;DHT22;4448;50.904;4.694;2023-03-14T05:32:15;11.00;99.90
8824;DHT22;4448;50.904;4.694;2023-03-14T05:34:41;11.10;99.90
8824;DHT22;4448;50.904;4.694;2023-03-14T05:37:06;11.10;99.90
8824;DHT22;4448;50.904;4.694;2023-03-14T05:39:32;11.00;99.90
8824;DHT22;4448;50.904;4.694;2023-03-14T05:41:58;11.00;99.90
8824;DHT22;4448;50.904;4.694;2023-03-14T05:44:24;11.00;99.90
8824;DHT22;4448;50.904;4.694;2023-03-14T05:46:49;11.10;99.90
8824;DHT22;4448;50.904;4.694;2023-03-14T05:49:15;11.10;99.90
8824;DHT22;4448;50.904;4.694;2023-03-14T05:51:41;11.10;99.90
8824;DHT22;4448;50.904;4.694;2023-03-14T05:54:07;11.10;99.90
8824;DHT22;4448;50.904;4.694;2023-03-14T05:56:33;11.10;99.90
8824;DHT22;4448;50.904;4.694;2023-03-14T05:58:59;11.10;99.90
8824;DHT22;4448;50.904;4.694;2023-03-14T06:01:28;11.10;99.90
8824;DHT22;4448;50.904;4.694;2023-03-14T06:03:53;11.10;99.90
8824;DHT22;4448;50.904;4.694;2023-03-14T06:06:19;11.10;99.90
8824;DHT22;4448;50.904;4.694;2023-03-14T06:08:45;11.10;99.90
8824;DHT22;4448;50.904;4.694;2023-03-14T06:11:11;11.10;99.90
8824;DHT22;4448;50.904;4.694;2023-03-14T06:13:36;11.10;99.90
8824;DHT22;4448;50.904;4.694;2023-03-14T06:16:02;11.10;99.90
8824;DHT22;4448;50.904;4.694;2023-03-14T06:18:28;11.10;99.90
8824;DHT22;4448;50.904;4.694;2023-03-14T06:20:54;11.10;99.90
8824;DHT22;4448;50.904;4.694;2023-03-14T06:23:21;11.10;99.90
8824;DHT22;4448;50.904;4.694;2023-03-14T06:25:47;11.10;99.90
8824;DHT22;4448;50.904;4.694;2023-03-14T06:28:12;11.10;99.90
8824;DHT22;4448;50.904;4.694;2023-03-14T06:30:38;11.10;99.90
8824;DHT22;4448;50.904;4.694;2023-03-14T06:33:04;11.10;99.90
8824;DHT22;4448;50.904;4.694;2023-03-14T06:35:29;11.10;99.90
8824;DHT22;4448;50.904;4.694;2023-03-14T06:37:55;11.20;99.90
8824;DHT22;4448;50.904;4.694;2023-03-14T06:40:21;11.20;99.90
8824;DHT22;4448;50.904;4.694;2023-03-14T06:42:47;11.20;99.90
8824;DHT22;4448;50.904;4.694;2023-03-14T06:45:13;11.20;99.90
8824;DHT22;4448;50.904;4.694;2023-03-14T06:47:39;11.20;99.90
8824;DHT22;4448;50.904;4.694;2023-03-14T06:50:06;11.20;99.90
8824;DHT22;4448;50.904;4.694;2023-03-14T06:52:32;11.20;99.90
8824;DHT22;4448;50.904;4.694;2023-03-14T06:54:59;11.20;99.90
8824;DHT22;4448;50.904;4.694;2023-03-14T06:57:24;11.20;99.90
8824;DHT22;4448;50.904;4.694;2023-03-14T06:59:50;11.20;99.90
8824;DHT22;4448;50.904;4.694;2023-03-14T07:02:16;11.20;99.90
8824;DHT22;4448;50.904;4.694;2023-03-14T07:04:41;11.20;99.90
8824;DHT22;4448;50.904;4.694;2023-03-14T07:07:07;11.20;99.90
8824;DHT22;4448;50.904;4.694;2023-03-14T07:09:33;11.20;99.90
8824;DHT22;4448;50.904;4.694;2023-03-14T07:11:59;11.20;99.90
8824;DHT22;4448;50.904;4.694;2023-03-14T07:14:25;11.20;99.90
8824;DHT22;4448;50.904;4.694;2023-03-14T07:16:51;11.10;99.90
8824;DHT22;4448;50.904;4.694;2023-03-14T07:19:17;11.10;99.90
8824;DHT22;4448;50.904;4.694;2023-03-14T07:21:43;11.00;99.90
8824;DHT22;4448;50.904;4.694;2023-03-14T07:24:08;11.00;99.90
8824;DHT22;4448;50.904;4.694;2023-03-14T07:26:34;10.90;99.90
8824;DHT22;4448;50.904;4.694;2023-03-14T07:29:00;10.90;99.90
8824;DHT22;4448;50.904;4.694;2023-03-14T07:31:28;10.90;99.90
8824;DHT22;4448;50.904;4.694;2023-03-14T07:33:54;10.80;99.90
8824;DHT22;4448;50.904;4.694;2023-03-14T07:36:20;10.80;99.90
8824;DHT22;4448;50.904;4.694;2023-03-14T07:38:45;10.70;99.90
8824;DHT22;4448;50.904;4.694;2023-03-14T07:41:11;10.70;99.90
8824;DHT22;4448;50.904;4.694;2023-03-14T07:43:37;10.70;99.90
8824;DHT22;4448;50.904;4.694;2023-03-14T07:46:03;10.60;99.90
8824;DHT22;4448;50.904;4.694;2023-03-14T07:48:28;10.60;99.90
8824;DHT22;4448;50.904;4.694;2023-03-14T07:50:55;10.60;99.90
8824;DHT22;4448;50.904;4.694;2023-03-14T07:53:22;10.50;99.90
8824;DHT22;4448;50.904;4.694;2023-03-14T07:55:48;10.50;99.90
8824;DHT22;4448;50.904;4.694;2023-03-14T07:58:14;10.50;99.90
8824;DHT22;4448;50.904;4.694;2023-03-14T08:00:39;10.50;99.90
8824;DHT22;4448;50.904;4.694;2023-03-14T08:03:05;10.50;99.90
8824;DHT22;4448;50.904;4.694;2023-03-14T08:05:34;10.40;99.90
8824;DHT22;4448;50.904;4.694;2023-03-14T08:08:00;10.40;99.90
8824;DHT22;4448;50.904;4.694;2023-03-14T08:10:25;10.40;99.90
8824;DHT22;4448;50.904;4.694;2023-03-14T08:12:54;10.40;99.90
8824;DHT22;4448;50.904;4.694;2023-03-14T08:15:21;10.40;99.90
8824;DHT22;4448;50.904;4.694;2023-03-14T08:17:46;10.40;99.90
8824;DHT22;4448;50.904;4.694;2023-03-14T08:20:20;10.50;99.90
8824;DHT22;4448;50.904;4.694;2023-03-14T08:22:46;10.50;99.90
8824;DHT22;4448;50.904;4.694;2023-03-14T08:25:12;10.50;99.90
8824;DHT22;4448;50.904;4.694;2023-03-14T08:27:43;10.50;99.90
8824;DHT22;4448;50.904;4.694;2023-03-14T08:30:11;10.50;99.90
8824;DHT22;4448;50.904;4.694;2023-03-14T08:32:38;10.50;99.90
8824;DHT22;4448;50.904;4.694;2023-03-14T08:35:05;10.50;99.90
8824;DHT22;4448;50.904;4.694;2023-03-14T08:37:32;10.50;99.90
8824;DHT22;4448;50.904;4.694;2023-03-14T08:39:58;10.50;99.90
8824;DHT22;4448;50.904;4.694;2023-03-14T08:42:23;10.50;99.90
8824;DHT22;4448;50.904;4.694;2023-03-14T08:44:51;10.50;99.90
8824;DHT22;4448;50.904;4.694;2023-03-14T08:47:17;10.50;99.90
8824;DHT22;4448;50.904;4.694;2023-03-14T08:49:42;10.40;99.90
8824;DHT22;4448;50.904;4.694;2023-03-14T08:52:08;10.40;99.90
8824;DHT22;4448;50.904;4.694;2023-03-14T08:54:34;10.40;99.90
8824;DHT22;4448;50.904;4.694;2023-03-14T08:57:00;10.40;99.90
8824;DHT22;4448;50.904;4.694;2023-03-14T08:59:25;10.40;99.90
8824;DHT22;4448;50.904;4.694;2023-03-14T09:01:51;10.40;99.90
8824;DHT22;4448;50.904;4.694;2023-03-14T09:04:17;10.30;99.90
8824;DHT22;4448;50.904;4.694;2023-03-14T09:06:42;10.30;99.90
8824;DHT22;4448;50.904;4.694;2023-03-14T09:09:08;10.30;99.90
8824;DHT22;4448;50.904;4.694;2023-03-14T09:11:34;10.40;99.90
8824;DHT22;4448;50.904;4.694;2023-03-14T09:14:00;10.30;99.90
8824;DHT22;4448;50.904;4.694;2023-03-14T09:16:26;10.30;99.90
8824;DHT22;4448;50.904;4.694;2023-03-14T09:18:52;10.40;99.90
8824;DHT22;4448;50.904;4.694;2023-03-14T09:21:25;10.40;99.90
8824;DHT22;4448;50.904;4.694;2023-03-14T09:23:51;10.40;99.90
8824;DHT22;4448;50.904;4.694;2023-03-14T09:26:16;10.40;99.90
8824;DHT22;4448;50.904;4.694;2023-03-14T09:28:42;10.40;99.90
8824;DHT22;4448;50.904;4.694;2023-03-14T09:31:09;10.40;99.90
8824;DHT22;4448;50.904;4.694;2023-03-14T09:33:35;10.40;99.90
8824;DHT22;4448;50.904;4.694;2023-03-14T09:36:01;10.50;99.90
8824;DHT22;4448;50.904;4.694;2023-03-14T09:38:28;10.40;99.90
8824;DHT22;4448;50.904;4.694;2023-03-14T09:40:54;10.40;99.90
8824;DHT22;4448;50.904;4.694;2023-03-14T09:43:21;10.30;99.90
8824;DHT22;4448;50.904;4.694;2023-03-14T09:45:48;10.30;99.90
8824;DHT22;4448;50.904;4.694;2023-03-14T09:48:19;10.30;99.90
8824;DHT22;4448;50.904;4.694;2023-03-14T09:50:49;10.30;99.90
8824;DHT22;4448;50.904;4.694;2023-03-14T09:53:21;10.30;99.90
8824;DHT22;4448;50.904;4.694;2023-03-14T09:55:50;10.20;99.90
8824;DHT22;4448;50.904;4.694;2023-03-14T09:58:19;10.30;99.90
8824;DHT22;4448;50.904;4.694;2023-03-14T10:00:45;10.30;99.90
8824;DHT22;4448;50.904;4.694;2023-03-14T10:05:37;10.30;99.90
8824;DHT22;4448;50.904;4.694;2023-03-14T10:08:03;10.40;99.90
8824;DHT22;4448;50.904;4.694;2023-03-14T10:10:30;10.40;99.90
8824;DHT22;4448;50.904;4.694;2023-03-14T10:13:19;10.40;99.90
8824;DHT22;4448;50.904;4.694;2023-03-14T10:16:07;10.50;99.90
8824;DHT22;4448;50.904;4.694;2023-03-14T10:18:33;10.50;99.90
8824;DHT22;4448;50.904;4.694;2023-03-14T10:21:26;10.50;99.90
8824;DHT22;4448;50.904;4.694;2023-03-14T10:23:53;10.50;99.90
8824;DHT22;4448;50.904;4.694;2023-03-14T10:26:24;10.40;99.90
8824;DHT22;4448;50.904;4.694;2023-03-14T10:28:53;10.40;99.90
8824;DHT22;4448;50.904;4.694;2023-03-14T10:31:25;10.40;99.90
8824;DHT22;4448;50.904;4.694;2023-03-14T10:33:59;10.30;99.90
8824;DHT22;4448;50.904;4.694;2023-03-14T10:36:31;10.30;99.90
8824;DHT22;4448;50.904;4.694;2023-03-14T10:44:35;10.20;99.90
8824;DHT22;4448;50.904;4.694;2023-03-14T10:47:03;10.20;99.90
8824;DHT22;4448;50.904;4.694;2023-03-14T10:49:35;10.10;99.90
8824;DHT22;4448;50.904;4.694;2023-03-14T10:52:23;10.10;99.90
8824;DHT22;4448;50.904;4.694;2023-03-14T10:54:58;10.20;99.90
8824;DHT22;4448;50.904;4.694;2023-03-14T10:57:24;10.10;99.90
8824;DHT22;4448;50.904;4.694;2023-03-14T10:59:52;10.10;99.90
8824;DHT22;4448;50.904;4.694;2023-03-14T11:08:10;10.10;99.90
8824;DHT22;4448;50.904;4.694;2023-03-14T11:10:39;10.10;99.90
8824;DHT22;4448;50.904;4.694;2023-03-14T11:20:59;10.00;99.90
8824;DHT22;4448;50.904;4.694;2023-03-14T11:31:40;9.90;99.90
8824;DHT22;4448;50.904;4.694;2023-03-14T11:37:00;9.90;99.90
8824;DHT22;4448;50.904;4.694;2023-03-14T11:39:38;9.90;99.90
8824;DHT22;4448;50.904;4.694;2023-03-14T11:42:04;9.90;99.90
8824;DHT22;4448;50.904;4.694;2023-03-14T11:44:32;9.90;99.90
8824;DHT22;4448;50.904;4.694;2023-03-14T11:47:24;10.00;99.90
8824;DHT22;4448;50.904;4.694;2023-03-14T11:49:57;10.00;99.90
8824;DHT22;4448;50.904;4.694;2023-03-14T11:52:32;10.10;99.90
8824;DHT22;4448;50.904;4.694;2023-03-14T11:57:30;10.20;99.90
8824;DHT22;4448;50.904;4.694;2023-03-14T12:00:19;10.30;99.90
8824;DHT22;4448;50.904;4.694;2023-03-14T12:05:37;10.40;99.90
8824;DHT22;4448;50.904;4.694;2023-03-14T12:11:04;10.40;99.90
8824;DHT22;4448;50.904;4.694;2023-03-14T12:13:37;10.50;99.90
8824;DHT22;4448;50.904;4.694;2023-03-14T12:16:27;10.40;99.90
8824;DHT22;4448;50.904;4.694;2023-03-14T12:18:55;10.50;99.90
8824;DHT22;4448;50.904;4.694;2023-03-14T12:21:21;10.40;99.90
8824;DHT22;4448;50.904;4.694;2023-03-14T12:23:57;10.40;99.90
8824;DHT22;4448;50.904;4.694;2023-03-14T12:26:25;10.50;99.90
8824;DHT22;4448;50.904;4.694;2023-03-14T12:42:13;10.20;99.90
8824;DHT22;4448;50.904;4.694;2023-03-14T12:44:44;10.20;99.90
8824;DHT22;4448;50.904;4.694;2023-03-14T12:49:50;10.10;99.90
8824;DHT22;4448;50.904;4.694;2023-03-14T12:55:33;10.00;99.90
8824;DHT22;4448;50.904;4.694;2023-03-14T12:58:16;10.00;99.90
8824;DHT22;4448;50.904;4.694;2023-03-14T13:00:42;10.00;99.90
8824;DHT22;4448;50.904;4.694;2023-03-14T13:03:23;10.00;99.90
8824;DHT22;4448;50.904;4.694;2023-03-14T13:11:16;10.00;99.90
8824;DHT22;4448;50.904;4.694;2023-03-14T13:13:49;10.00;99.90
8824;DHT22;4448;50.904;4.694;2023-03-14T13:16:20;10.00;99.90
8824;DHT22;4448;50.904;4.694;2023-03-14T13:18:49;10.00;99.90
8824;DHT22;4448;50.904;4.694;2023-03-14T13:21:20;10.00;99.90
8824;DHT22;4448;50.904;4.694;2023-03-14T13:23:59;10.00;99.90
8824;DHT22;4448;50.904;4.694;2023-03-14T13:26:35;10.00;99.90
8824;DHT22;4448;50.904;4.694;2023-03-14T13:29:30;10.00;99.90
8824;DHT22;4448;50.904;4.694;2023-03-14T13:31:59;9.90;99.90
8824;DHT22;4448;50.904;4.694;2023-03-14T13:34:30;9.90;99.90
8824;DHT22;4448;50.904;4.694;2023-03-14T13:36:56;9.90;99.90
8824;DHT22;4448;50.904;4.694;2023-03-14T13:39:24;9.80;99.90
8824;DHT22;4448;50.904;4.694;2023-03-14T13:41:57;9.80;99.90
8824;DHT22;4448;50.904;4.694;2023-03-14T13:44:33;9.70;99.90
8824;DHT22;4448;50.904;4.694;2023-03-14T13:47:05;9.60;99.90
8824;DHT22;4448;50.904;4.694;2023-03-14T13:49:37;9.50;99.90
8824;DHT22;4448;50.904;4.694;2023-03-14T13:52:04;9.40;99.90
8824;DHT22;4448;50.904;4.694;2023-03-14T13:54:31;9.40;99.90
8824;DHT22;4448;50.904;4.694;2023-03-14T13:57:02;9.40;99.90
8824;DHT22;4448;50.904;4.694;2023-03-14T13:59:33;9.40;99.90
8824;DHT22;4448;50.904;4.694;2023-03-14T14:02:03;9.50;99.90
8824;DHT22;4448;50.904;4.694;2023-03-14T14:04:33;9.50;99.90
8824;DHT22;4448;50.904;4.694;2023-03-14T14:07:06;9.50;99.90
8824;DHT22;4448;50.904;4.694;2023-03-14T14:09:40;9.50;99.90
8824;DHT22;4448;50.904;4.694;2023-03-14T14:12:10;9.60;99.90
8824;DHT22;4448;50.904;4.694;2023-03-14T14:14:44;9.60;99.90
8824;DHT22;4448;50.904;4.694;2023-03-14T14:17:19;9.60;99.90
8824;DHT22;4448;50.904;4.694;2023-03-14T14:19:46;9.70;99.90
8824;DHT22;4448;50.904;4.694;2023-03-14T14:22:12;9.70;99.90
8824;DHT22;4448;50.904;4.694;2023-03-14T14:24:39;9.80;99.90
8824;DHT22;4448;50.904;4.694;2023-03-14T14:27:17;9.80;99.90
8824;DHT22;4448;50.904;4.694;2023-03-14T14:29:43;9.80;99.90
8824;DHT22;4448;50.904;4.694;2023-03-14T14:32:15;9.80;99.90
8824;DHT22;4448;50.904;4.694;2023-03-14T14:34:55;9.90;99.90
8824;DHT22;4448;50.904;4.694;2023-03-14T14:37:25;9.90;99.90
8824;DHT22;4448;50.904;4.694;2023-03-14T14:39:54;10.00;99.90
8824;DHT22;4448;50.904;4.694;2023-03-14T14:42:21;10.00;99.90
8824;DHT22;4448;50.904;4.694;2023-03-14T14:44:50;10.00;99.90
8824;DHT22;4448;50.904;4.694;2023-03-14T14:47:23;10.10;99.90
8824;DHT22;4448;50.904;4.694;2023-03-14T14:49:51;10.10;99.90
8824;DHT22;4448;50.904;4.694;2023-03-14T14:52:20;10.10;99.90
8824;DHT22;4448;50.904;4.694;2023-03-14T14:57:38;10.10;99.90
8824;DHT22;4448;50.904;4.694;2023-03-14T15:00:16;10.00;99.90
8824;DHT22;4448;50.904;4.694;2023-03-14T15:02:46;9.70;99.90
8824;DHT22;4448;50.904;4.694;2023-03-14T15:07:39;9.10;99.90
8824;DHT22;4448;50.904;4.694;2023-03-14T15:10:05;9.00;99.90
8824;DHT22;4448;50.904;4.694;2023-03-14T15:12:31;8.90;99.90
8824;DHT22;4448;50.904;4.694;2023-03-14T15:14:57;8.90;99.90
8824;DHT22;4448;50.904;4.694;2023-03-14T15:17:23;8.80;99.90
8824;DHT22;4448;50.904;4.694;2023-03-14T15:19:49;8.80;99.90
8824;DHT22;4448;50.904;4.694;2023-03-14T15:22:15;8.80;99.90
8824;DHT22;4448;50.904;4.694;2023-03-14T15:24:41;8.80;99.90
8824;DHT22;4448;50.904;4.694;2023-03-14T15:27:16;8.80;99.90
8824;DHT22;4448;50.904;4.694;2023-03-14T15:29:42;8.80;99.90
8824;DHT22;4448;50.904;4.694;2023-03-14T15:32:14;8.80;99.90
8824;DHT22;4448;50.904;4.694;2023-03-14T15:34:41;8.80;99.90
8824;DHT22;4448;50.904;4.694;2023-03-14T15:37:15;8.80;99.90
8824;DHT22;4448;50.904;4.694;2023-03-14T15:39:42;8.80;99.90
8824;DHT22;4448;50.904;4.694;2023-03-14T15:42:08;8.80;99.90
8824;DHT22;4448;50.904;4.694;2023-03-14T15:44:34;8.80;99.90
8824;DHT22;4448;50.904;4.694;2023-03-14T15:47:00;8.80;99.90
8824;DHT22;4448;50.904;4.694;2023-03-14T15:49:27;8.80;99.90
8824;DHT22;4448;50.904;4.694;2023-03-14T15:51:52;8.90;99.90
8824;DHT22;4448;50.904;4.694;2023-03-14T15:54:18;8.90;99.90
8824;DHT22;4448;50.904;4.694;2023-03-14T15:56:44;8.90;99.90
8824;DHT22;4448;50.904;4.694;2023-03-14T15:59:10;8.90;99.90
8824;DHT22;4448;50.904;4.694;2023-03-14T16:01:35;8.90;99.90
8824;DHT22;4448;50.904;4.694;2023-03-14T16:04:01;8.90;99.90
8824;DHT22;4448;50.904;4.694;2023-03-14T16:06:28;8.90;99.90
8824;DHT22;4448;50.904;4.694;2023-03-14T16:08:54;8.90;99.90
8824;DHT22;4448;50.904;4.694;2023-03-14T16:11:20;8.90;99.90
8824;DHT22;4448;50.904;4.694;2023-03-14T16:13:46;8.90;99.90
8824;DHT22;4448;50.904;4.694;2023-03-14T16:16:13;8.90;99.90
8824;DHT22;4448;50.904;4.694;2023-03-14T16:18:39;8.90;99.90
8824;DHT22;4448;50.904;4.694;2023-03-14T16:21:07;8.90;99.90
8824;DHT22;4448;50.904;4.694;2023-03-14T16:23:34;8.90;99.90
8824;DHT22;4448;50.904;4.694;2023-03-14T16:26:06;8.90;99.90
8824;DHT22;4448;50.904;4.694;2023-03-14T16:28:32;8.80;99.90
8824;DHT22;4448;50.904;4.694;2023-03-14T16:31:06;8.80;99.90
8824;DHT22;4448;50.904;4.694;2023-03-14T16:33:34;8.80;99.90
8824;DHT22;4448;50.904;4.694;2023-03-14T16:36:01;8.70;99.90
8824;DHT22;4448;50.904;4.694;2023-03-14T16:38:31;8.80;99.90
8824;DHT22;4448;50.904;4.694;2023-03-14T16:40:59;8.70;99.90
8824;DHT22;4448;50.904;4.694;2023-03-14T16:43:25;8.70;99.90
8824;DHT22;4448;50.904;4.694;2023-03-14T16:45:51;8.70;99.90
8824;DHT22;4448;50.904;4.694;2023-03-14T16:48:17;8.70;99.90
8824;DHT22;4448;50.904;4.694;2023-03-14T16:50:43;8.60;99.90
8824;DHT22;4448;50.904;4.694;2023-03-14T16:53:08;8.60;99.90
8824;DHT22;4448;50.904;4.694;2023-03-14T16:55:34;8.60;99.90
8824;DHT22;4448;50.904;4.694;2023-03-14T16:58:05;8.60;99.90
8824;DHT22;4448;50.904;4.694;2023-03-14T17:00:31;8.60;99.90
8824;DHT22;4448;50.904;4.694;2023-03-14T17:02:56;8.60;99.90
8824;DHT22;4448;50.904;4.694;2023-03-14T17:05:22;8.60;99.90
8824;DHT22;4448;50.904;4.694;2023-03-14T17:07:50;8.60;99.90
8824;DHT22;4448;50.904;4.694;2023-03-14T17:10:17;8.60;99.90
8824;DHT22;4448;50.904;4.694;2023-03-14T17:12:44;8.60;99.90
8824;DHT22;4448;50.904;4.694;2023-03-14T17:15:10;8.60;99.90
8824;DHT22;4448;50.904;4.694;2023-03-14T17:17:36;8.50;99.90
8824;DHT22;4448;50.904;4.694;2023-03-14T17:20:04;8.50;99.90
8824;DHT22;4448;50.904;4.694;2023-03-14T17:22:30;8.50;99.90
8824;DHT22;4448;50.904;4.694;2023-03-14T17:24:56;8.50;99.90
8824;DHT22;4448;50.904;4.694;2023-03-14T17:27:21;8.50;99.90